Time,TemperatureF,DewpointF,PressureIn,WindDirection,WindDirectionDegrees,WindSpeedMPH,WindSpeedGustMPH,Humidity,HourlyPrecipIn,Conditions,Clouds,dailyrainin,SoftwareType,DateUTC
2013-04-23 00:00:00,5.9,3.9,29.71,ESE,112,2.7,-999.0,91,-99.99,,,0.00,Acu-Link.com,2013-04-23 06:00:00,
2013-04-23 00:15:00,5.9,3.6,29.71,ESE,112,0.0,-999.0,90,-99.99,,,0.00,Acu-Link.com,2013-04-23 06:15:00,
2013-04-23 00:30:00,5.9,3.6,29.71,ESE,112,0.0,-999.0,90,-99.99,,,0.00,Acu-Link.com,2013-04-23 06:30:00,
2013-04-23 00:45:00,5.9,3.6,29.71,ESE,112,1.1,-999.0,90,-99.99,,,0.00,Acu-Link.com,2013-04-23 06:45:00,
2013-04-23 01:00:00,5.9,3.6,29.70,ESE,112,0.0,-999.0,90,-99.99,,,0.00,Acu-Link.com,2013-04-23 07:00:00,
2013-04-23 01:16:00,5.4,2.9,29.70,ESE,112,0.0,-999.0,89,-99.99,,,0.00,Acu-Link.com,2013-04-23 07:16:00,
2013-04-23 01:31:00,4.8,2.3,29.69,ESE,112,1.1,-999.0,89,-99.99,,,0.00,Acu-Link.com,2013-04-23 07:31:00,
2013-04-23 01:46:00,4.6,2.1,29.68,ESE,112,0.0,-999.0,89,-99.99,,,0.00,Acu-Link.com,2013-04-23 07:46:00,
2013-04-23 02:01:00,4.8,2.3,29.68,ESE,112,0.0,-999.0,89,-99.99,,,0.00,Acu-Link.com,2013-04-23 08:01:00,
2013-04-23 02:16:00,4.8,2.3,29.68,ESE,112,0.0,-999.0,89,-99.99,,,0.00,Acu-Link.com,2013-04-23 08:16:00,
2013-04-23 02:31:00,5.0,2.5,29.66,ESE,112,1.1,-999.0,89,-99.99,,,0.00,Acu-Link.com,2013-04-23 08:31:00,
2013-04-23 02:46:00,5.2,2.7,29.66,ESE,112,0.0,-999.0,89,-99.99,,,0.00,Acu-Link.com,2013-04-23 08:46:00,
2013-04-23 03:01:00,4.8,2.0,29.66,ESE,112,0.0,-999.0,88,-99.99,,,0.00,Acu-Link.com,2013-04-23 09:01:00,
2013-04-23 03:16:00,4.6,1.8,29.66,ESE,112,0.0,-999.0,88,-99.99,,,0.00,Acu-Link.com,2013-04-23 09:16:00,
2013-04-23 03:32:00,4.1,1.4,29.66,ESE,112,0.0,-999.0,88,-99.99,,,0.00,Acu-Link.com,2013-04-23 09:32:00,
2013-04-23 03:47:00,3.9,1.2,29.66,ESE,112,0.0,-999.0,88,-99.99,,,0.00,Acu-Link.com,2013-04-23 09:47:00,
2013-04-23 04:02:00,3.2,0.2,29.66,ESE,112,0.0,-999.0,87,-99.99,,,0.00,Acu-Link.com,2013-04-23 10:02:00,
2013-04-23 04:17:00,2.7,-0.3,29.66,ESE,112,0.0,-999.0,87,-99.99,,,0.00,Acu-Link.com,2013-04-23 10:17:00,
2013-04-23 04:32:00,2.3,-0.7,29.66,ESE,112,0.0,-999.0,87,-99.99,,,0.00,Acu-Link.com,2013-04-23 10:32:00,
2013-04-23 04:47:00,2.1,-0.6,29.66,ESE,112,0.0,-999.0,88,-99.99,,,0.00,Acu-Link.com,2013-04-23 10:47:00,
2013-04-23 05:02:00,1.0,-1.7,29.65,ESE,112,0.0,-999.0,88,-99.99,,,0.00,Acu-Link.com,2013-04-23 11:02:00,
2013-04-23 05:17:00,-0.6,-3.0,29.65,ESE,112,0.0,-999.0,89,-99.99,,,0.00,Acu-Link.com,2013-04-23 11:17:00,
2013-04-23 05:32:00,-0.2,-3.1,29.66,ESE,112,0.0,-999.0,87,-99.99,,,0.00,Acu-Link.com,2013-04-23 11:32:00,
2013-04-23 05:48:00,-1.1,-4.0,29.65,ESE,112,0.0,-999.0,87,-99.99,,,0.00,Acu-Link.com,2013-04-23 11:48:00,
2013-04-23 06:18:00,-0.2,-3.1,29.65,ESE,112,0.0,-999.0,87,-99.99,,,0.00,Acu-Link.com,2013-04-23 12:18:00,
2013-04-23 06:33:00,0.9,-2.0,29.66,ESE,112,0.0,-999.0,87,-99.99,,,0.00,Acu-Link.com,2013-04-23 12:33:00,
2013-04-23 06:48:00,1.0,-1.9,29.66,ESE,112,0.0,-999.0,87,-99.99,,,0.00,Acu-Link.com,2013-04-23 12:48:00,
2013-04-23 07:03:00,1.2,-1.5,29.67,ESE,112,0.0,-999.0,88,-99.99,,,0.00,Acu-Link.com,2013-04-23 13:03:00,
2013-04-23 07:18:00,1.8,-1.2,29.67,ESE,112,0.0,-999.0,87,-99.99,,,0.00,Acu-Link.com,2013-04-23 13:18:00,
2013-04-23 07:33:00,2.8,0.1,29.68,ESE,112,0.0,-999.0,88,-99.99,,,0.00,Acu-Link.com,2013-04-23 13:33:00,
2013-04-23 07:48:00,3.0,0.7,29.68,ESE,112,0.0,-999.0,90,-99.99,,,0.00,Acu-Link.com,2013-04-23 13:48:00,
2013-04-23 08:03:00,5.5,3.0,29.68,ESE,112,0.0,-999.0,89,-99.99,,,0.00,Acu-Link.com,2013-04-23 14:03:00,
2013-04-23 08:19:00,8.4,5.1,29.68,ESE,112,0.0,-999.0,86,-99.99,,,0.00,Acu-Link.com,2013-04-23 14:19:00,
2013-04-23 08:34:00,11.7,6.2,29.68,ESE,112,0.0,-999.0,78,-99.99,,,0.00,Acu-Link.com,2013-04-23 14:34:00,
2013-04-23 08:49:00,13.6,7.5,29.68,ESE,112,0.0,-999.0,76,-99.99,,,0.00,Acu-Link.com,2013-04-23 14:49:00,
2013-04-23 09:04:00,16.2,6.9,29.69,ESE,112,0.0,-999.0,66,-99.99,,,0.00,Acu-Link.com,2013-04-23 15:04:00,
2013-04-23 09:19:00,15.4,7.1,29.69,ESE,112,0.0,-999.0,69,-99.99,,,0.00,Acu-Link.com,2013-04-23 15:19:00,
2013-04-23 09:34:00,16.9,8.2,29.69,ESE,112,1.7,-999.0,68,-99.99,,,0.00,Acu-Link.com,2013-04-23 15:34:00,
2013-04-23 09:49:00,21.2,9.5,29.68,ESE,112,0.0,-999.0,60,-99.99,,,0.00,Acu-Link.com,2013-04-23 15:49:00,
2013-04-23 10:04:00,22.5,9.6,29.68,ESE,112,1.1,-999.0,57,-99.99,,,0.00,Acu-Link.com,2013-04-23 16:04:00,
2013-04-23 10:19:00,26.2,9.2,29.68,ESE,112,0.0,-999.0,48,-99.99,,,0.00,Acu-Link.com,2013-04-23 16:19:00,
2013-04-23 10:35:00,24.3,10.1,29.68,ESE,112,3.7,-999.0,54,-99.99,,,0.00,Acu-Link.com,2013-04-23 16:35:00,
2013-04-23 10:50:00,23.7,10.7,29.68,ESE,112,1.1,-999.0,57,-99.99,,,0.00,Acu-Link.com,2013-04-23 16:50:00,
2013-04-23 11:05:00,22.3,10.6,29.69,ESE,112,2.2,-999.0,60,-99.99,,,0.00,Acu-Link.com,2013-04-23 17:05:00,
2013-04-23 11:20:00,23.7,10.3,29.69,ESE,112,1.7,-999.0,56,-99.99,,,0.00,Acu-Link.com,2013-04-23 17:20:00,
2013-04-23 11:35:00,25.2,11.7,29.69,ESE,112,2.7,-999.0,56,-99.99,,,0.00,Acu-Link.com,2013-04-23 17:35:00,
2013-04-23 11:50:00,23.2,10.6,29.69,ESE,112,1.7,-999.0,58,-99.99,,,0.00,Acu-Link.com,2013-04-23 17:50:00,
2013-04-23 12:05:00,30.4,14.5,29.69,ESE,112,2.2,-999.0,51,-99.99,,,0.00,Acu-Link.com,2013-04-23 18:05:00,
2013-04-23 12:20:00,29.3,12.5,29.69,ESE,112,5.3,-999.0,49,-99.99,,,0.00,Acu-Link.com,2013-04-23 18:20:00,
2013-04-23 12:35:00,27.5,13.1,29.69,ESE,112,3.7,-999.0,54,-99.99,,,0.00,Acu-Link.com,2013-04-23 18:35:00,
2013-04-23 12:51:00,31.8,14.8,29.69,ESE,112,4.2,-999.0,49,-99.99,,,0.00,Acu-Link.com,2013-04-23 18:51:00,
2013-04-23 13:06:00,29.1,12.4,29.68,ESE,112,2.2,-999.0,49,-99.99,,,0.00,Acu-Link.com,2013-04-23 19:06:00,
2013-04-23 13:21:00,27.1,10.0,29.69,ESE,112,4.2,-999.0,48,-99.99,,,0.00,Acu-Link.com,2013-04-23 19:21:00,
2013-04-23 13:36:00,25.5,8.6,29.68,ESE,112,4.2,-999.0,48,-99.99,,,0.01,Acu-Link.com,2013-04-23 19:36:00,
2013-04-23 13:51:00,29.3,10.6,29.68,ESE,112,1.7,-999.0,45,-99.99,,,0.01,Acu-Link.com,2013-04-23 19:51:00,
2013-04-23 14:06:00,30.9,11.1,29.69,ESE,112,1.1,-999.0,43,-99.99,,,0.01,Acu-Link.com,2013-04-23 20:06:00,
2013-04-23 14:21:00,29.5,9.3,29.69,ESE,112,3.2,-999.0,42,-99.99,,,0.01,Acu-Link.com,2013-04-23 20:21:00,
2013-04-23 14:36:00,24.6,10.4,29.69,ESE,112,6.3,-999.0,54,-99.99,,,0.01,Acu-Link.com,2013-04-23 20:36:00,
2013-04-23 14:51:00,24.8,10.1,29.69,ESE,112,4.7,-999.0,53,-99.99,,,0.02,Acu-Link.com,2013-04-23 20:51:00,
2013-04-23 15:07:00,28.4,10.8,29.69,ESE,112,4.2,-999.0,47,-99.99,,,0.03,Acu-Link.com,2013-04-23 21:07:00,
2013-04-23 15:22:00,27.9,11.2,29.70,ESE,112,2.7,-999.0,49,-99.99,,,0.03,Acu-Link.com,2013-04-23 21:22:00,
2013-04-23 15:37:00,29.3,12.5,29.69,ESE,112,2.7,-999.0,49,-99.99,,,0.04,Acu-Link.com,2013-04-23 21:37:00,
2013-04-23 15:52:00,25.5,9.0,29.69,ESE,112,4.2,-999.0,49,-99.99,,,0.04,Acu-Link.com,2013-04-23 21:52:00,
2013-04-23 16:07:00,27.3,9.3,29.69,ESE,112,5.3,-999.0,46,-99.99,,,0.04,Acu-Link.com,2013-04-23 22:07:00,
2013-04-23 16:22:00,26.2,7.8,29.68,ESE,112,5.8,-999.0,45,-99.99,,,0.04,Acu-Link.com,2013-04-23 22:22:00,
2013-04-23 16:37:00,26.1,9.1,29.69,ESE,112,4.7,-999.0,48,-99.99,,,0.05,Acu-Link.com,2013-04-23 22:37:00,
2013-04-23 16:52:00,23.0,7.6,29.69,ESE,112,4.7,-999.0,51,-99.99,,,0.05,Acu-Link.com,2013-04-23 22:52:00,
2013-04-23 17:07:00,21.7,6.4,29.69,ESE,112,3.2,-999.0,51,-99.99,,,0.05,Acu-Link.com,2013-04-23 23:07:00,
2013-04-23 17:23:00,21.9,7.8,29.70,ESE,112,3.2,-999.0,54,-99.99,,,0.05,Acu-Link.com,2013-04-23 23:23:00,
2013-04-23 17:38:00,21.7,8.1,29.70,ESE,112,4.2,-999.0,55,-99.99,,,0.05,Acu-Link.com,2013-04-23 23:38:00,
2013-04-23 17:53:00,18.3,6.0,29.71,ESE,112,2.2,-999.0,58,-99.99,,,0.05,Acu-Link.com,2013-04-23 23:53:00,
2013-04-23 18:08:00,18.5,5.5,29.71,ESE,112,4.7,-999.0,56,-99.99,,,0.05,Acu-Link.com,2013-04-24 00:08:00,
2013-04-23 18:23:00,17.6,8.2,29.71,ESE,112,2.2,-999.0,66,-99.99,,,0.05,Acu-Link.com,2013-04-24 00:23:00,
2013-04-23 18:38:00,17.1,6.4,29.70,ESE,112,2.7,-999.0,62,-99.99,,,0.05,Acu-Link.com,2013-04-24 00:38:00,
2013-04-23 18:53:00,16.3,5.9,29.70,West,270,3.2,-999.0,63,-99.99,,,0.05,Acu-Link.com,2013-04-24 00:53:00,
2013-04-23 19:08:00,15.3,5.3,29.71,ESE,112,2.7,-999.0,64,-99.99,,,0.05,Acu-Link.com,2013-04-24 01:08:00,
2013-04-23 19:23:00,15.3,6.3,29.71,ESE,112,2.7,-999.0,67,-99.99,,,0.05,Acu-Link.com,2013-04-24 01:23:00,
2013-04-23 19:39:00,14.9,5.6,29.71,ESE,112,3.7,-999.0,66,-99.99,,,0.05,Acu-Link.com,2013-04-24 01:39:00,
2013-04-23 19:54:00,14.7,5.4,29.72,ESE,112,3.2,-999.0,66,-99.99,,,0.05,Acu-Link.com,2013-04-24 01:54:00,
2013-04-23 20:09:00,14.9,6.0,29.72,ESE,112,3.2,-999.0,67,-99.99,,,0.05,Acu-Link.com,2013-04-24 02:09:00,
2013-04-23 20:24:00,14.5,5.6,29.73,ESE,112,2.2,-999.0,67,-99.99,,,0.05,Acu-Link.com,2013-04-24 02:24:00,
2013-04-23 20:39:00,14.2,6.2,29.74,ESE,112,2.7,-999.0,70,-99.99,,,0.05,Acu-Link.com,2013-04-24 02:39:00,
2013-04-23 20:54:00,14.0,6.4,29.74,ESE,112,1.1,-999.0,71,-99.99,,,0.05,Acu-Link.com,2013-04-24 02:54:00,
2013-04-23 21:09:00,13.8,5.9,29.75,ESE,112,2.7,-999.0,70,-99.99,,,0.05,Acu-Link.com,2013-04-24 03:09:00,
2013-04-23 21:39:00,13.6,5.7,29.75,ESE,112,1.1,-999.0,70,-99.99,,,0.05,Acu-Link.com,2013-04-24 03:39:00,
2013-04-23 21:55:00,13.1,5.2,29.75,ESE,112,1.1,-999.0,70,-99.99,,,0.05,Acu-Link.com,2013-04-24 03:55:00,
2013-04-23 22:10:00,12.2,4.6,29.75,ESE,112,1.1,-999.0,71,-99.99,,,0.05,Acu-Link.com,2013-04-24 04:10:00,
2013-04-23 22:25:00,11.8,4.2,29.75,ESE,112,1.1,-999.0,71,-99.99,,,0.05,Acu-Link.com,2013-04-24 04:25:00,
2013-04-23 22:40:00,11.7,4.1,29.75,ESE,112,2.7,-999.0,71,-99.99,,,0.05,Acu-Link.com,2013-04-24 04:40:00,
2013-04-23 22:55:00,11.1,4.2,29.75,ESE,112,2.7,-999.0,73,-99.99,,,0.05,Acu-Link.com,2013-04-24 04:55:00,
2013-04-23 23:10:00,10.6,4.0,29.75,ESE,112,1.7,-999.0,74,-99.99,,,0.05,Acu-Link.com,2013-04-24 05:10:00,
2013-04-23 23:25:00,10.4,3.8,29.75,ESE,112,2.2,-999.0,74,-99.99,,,0.05,Acu-Link.com,2013-04-24 05:25:00,
2013-04-23 23:40:00,9.3,3.3,29.75,ESE,112,1.7,-999.0,76,-99.99,,,0.05,Acu-Link.com,2013-04-24 05:40:00,
2013-04-23 23:55:00,9.1,3.4,29.75,ESE,112,1.7,-999.0,77,-99.99,,,0.05,Acu-Link.com,2013-04-24 05:55:00,